Time;durP1;ratioP1;P1;durP2;ratioP2;P2;SDS_P1;SDS_P2;PMS_P1;PMS_P2;Temp;Humidity;BMP_temperature;BMP_pressure;BME280_temperature;BME280_humidity;BME280_pressure;Samples;Min_cycle;Max_cycle;Signal;HPM_P1;HPM_P2
2023/03/26 00:01:14;;;;;;;20.90;3.97;;;8.10;99.90;;;;;;5020792;28;20349;-90
2023/03/26 00:03:40;;;;;;;14.05;3.45;;;8.10;99.90;;;;;;5009177;28;20348;-89
2023/03/26 00:06:08;;;;;;;18.60;4.07;;;8.10;99.90;;;;;;5016453;28;20045;-90
2023/03/26 00:08:36;;;;;;;14.57;3.38;;;8.00;99.90;;;;;;5018910;28;20038;-90
2023/03/26 00:11:03;;;;;;;18.33;3.53;;;8.00;99.90;;;;;;5003049;28;20545;-89
2023/03/26 00:13:29;;;;;;;13.38;3.03;;;8.00;99.90;;;;;;5024538;28;20172;-90
2023/03/26 00:15:55;;;;;;;13.32;3.28;;;8.00;99.90;;;;;;5004446;28;20098;-90
2023/03/26 00:18:23;;;;;;;16.08;3.97;;;8.00;99.90;;;;;;5025665;28;20422;-90
2023/03/26 00:20:50;;;;;;;17.63;3.50;;;8.00;99.90;;;;;;5016807;28;20076;-90
2023/03/26 00:23:16;;;;;;;16.77;3.60;;;8.00;99.90;;;;;;5008377;28;20140;-90
2023/03/26 00:25:42;;;;;;;17.27;3.75;;;8.00;99.90;;;;;;5021883;28;20231;-90
2023/03/26 00:28:09;;;;;;;15.57;3.63;;;7.90;99.90;;;;;;4999244;28;20184;-91
2023/03/26 00:30:35;;;;;;;18.77;3.40;;;7.90;99.90;;;;;;5028250;28;20041;-90
2023/03/26 00:33:01;;;;;;;16.40;3.92;;;8.00;99.90;;;;;;5007042;28;20091;-90
2023/03/26 00:35:30;;;;;;;12.90;3.47;;;7.90;99.90;;;;;;5043729;28;20695;-90
2023/03/26 00:37:57;;;;;;;28.02;5.55;;;8.00;99.90;;;;;;5000669;28;20026;-90
2023/03/26 00:40:23;;;;;;;13.75;3.83;;;7.90;99.90;;;;;;5018948;28;20072;-90
2023/03/26 00:42:49;;;;;;;23.50;4.13;;;8.00;99.90;;;;;;5001950;28;20041;-90
2023/03/26 00:45:20;;;;;;;15.93;3.97;;;7.90;99.90;;;;;;5021464;28;20052;-89
2023/03/26 00:47:46;;;;;;;12.60;3.60;;;8.00;99.90;;;;;;5002488;28;20036;-90
2023/03/26 00:50:15;;;;;;;20.33;4.07;;;8.00;99.90;;;;;;5002111;28;20045;-90
2023/03/26 00:52:45;;;;;;;18.85;3.88;;;8.00;99.90;;;;;;5003149;28;20099;-89
2023/03/26 00:55:11;;;;;;;20.02;3.85;;;8.00;99.90;;;;;;5005975;28;20045;-90
2023/03/26 00:57:39;;;;;;;17.42;3.88;;;8.00;99.90;;;;;;5025209;28;20045;-89
2023/03/26 01:00:11;;;;;;;17.48;4.60;;;7.90;99.90;;;;;;5005548;28;20037;-90
2023/03/26 01:02:38;;;;;;;17.00;3.40;;;8.00;99.90;;;;;;5022427;28;20602;-90
2023/03/26 01:05:41;;;;;;;16.63;4.20;;;7.90;99.90;;;;;;5028237;28;20128;-90
2023/03/26 01:08:16;;;;;;;16.80;3.67;;;7.90;99.90;;;;;;5022919;28;20032;-89
2023/03/26 01:10:49;;;;;;;21.33;3.75;;;7.90;99.90;;;;;;5035490;28;20129;-90
2023/03/26 01:13:23;;;;;;;12.70;3.13;;;7.80;99.90;;;;;;5018857;28;20403;-90
2023/03/26 01:15:51;;;;;;;18.10;3.25;;;7.80;99.90;;;;;;5018909;28;20073;-89
2023/03/26 01:18:25;;;;;;;15.80;3.83;;;7.70;99.90;;;;;;5038942;28;20132;-89
2023/03/26 01:20:57;;;;;;;16.23;3.47;;;7.80;99.90;;;;;;5005916;28;20041;-89
2023/03/26 01:23:30;;;;;;;17.20;4.28;;;7.70;99.90;;;;;;5004677;28;20464;-90
2023/03/26 01:26:15;;;;;;;15.13;3.22;;;7.70;99.90;;;;;;5020500;28;20245;-90
2023/03/26 01:28:45;;;;;;;14.45;3.40;;;7.60;99.90;;;;;;5003437;28;20184;-89
2023/03/26 01:31:28;;;;;;;15.68;3.45;;;7.70;99.90;;;;;;5007827;28;20041;-90
2023/03/26 01:34:13;;;;;;;16.33;3.70;;;7.60;99.90;;;;;;5023479;28;20347;-89
2023/03/26 01:36:55;;;;;;;16.90;4.50;;;7.60;99.90;;;;;;5026325;28;20081;-90
2023/03/26 01:39:52;;;;;;;15.25;3.95;;;7.60;99.90;;;;;;5015937;28;20144;-90
2023/03/26 01:42:32;;;;;;;18.92;4.22;;;7.60;99.90;;;;;;5029474;28;20113;-90
2023/03/26 01:45:30;;;;;;;16.05;3.40;;;7.60;99.90;;;;;;5015862;28;20049;-89
2023/03/26 01:47:57;;;;;;;16.02;3.30;;;7.50;99.90;;;;;;4986024;28;20046;-90
2023/03/26 01:50:22;;;;;;;17.23;3.38;;;7.50;99.90;;;;;;5004979;28;20208;-90
2023/03/26 01:52:48;;;;;;;14.48;3.60;;;7.50;99.90;;;;;;5007125;28;20859;-90
2023/03/26 01:55:16;;;;;;;14.50;4.15;;;7.50;99.90;;;;;;5005220;28;20309;-89
2023/03/26 01:57:48;;;;;;;17.05;3.90;;;7.40;99.90;;;;;;5016066;28;20045;-90
2023/03/26 02:00:21;;;;;;;15.73;3.97;;;7.40;99.90;;;;;;5003820;28;20041;-90
2023/03/26 02:03:17;;;;;;;15.80;3.90;;;7.30;99.90;;;;;;5000713;28;20103;-90
2023/03/26 02:05:46;;;;;;;20.17;4.10;;;7.30;99.90;;;;;;5021159;28;20551;-90
2023/03/26 02:08:15;;;;;;;19.50;4.63;;;7.20;99.90;;;;;;4999673;28;20092;-90
2023/03/26 02:10:45;;;;;;;19.55;4.07;;;7.20;99.90;;;;;;5020010;28;20628;-90
2023/03/26 02:13:12;;;;;;;20.17;4.13;;;7.20;99.90;;;;;;5003079;28;20037;-90
2023/03/26 02:15:53;;;;;;;21.77;3.97;;;7.10;99.90;;;;;;5003445;28;20045;-90
2023/03/26 02:18:22;;;;;;;17.25;4.75;;;7.10;99.90;;;;;;5001305;28;20030;-90
2023/03/26 02:20:51;;;;;;;17.52;3.50;;;7.00;99.90;;;;;;5017339;28;20096;-90
2023/03/26 02:23:20;;;;;;;23.73;4.78;;;7.00;99.90;;;;;;5002804;28;20033;-90
2023/03/26 02:25:47;;;;;;;20.88;5.47;;;6.90;99.90;;;;;;5035056;28;20094;-90
2023/03/26 02:28:12;;;;;;;31.42;4.13;;;6.80;99.90;;;;;;5003041;28;20033;-90
2023/03/26 02:30:46;;;;;;;17.75;4.00;;;6.80;99.90;;;;;;5001645;28;20331;-90
2023/03/26 02:33:14;;;;;;;15.48;4.72;;;6.80;99.90;;;;;;5029652;28;20170;-90
2023/03/26 02:35:44;;;;;;;16.90;3.88;;;6.80;99.90;;;;;;5033024;28;20156;-90
2023/03/26 02:38:13;;;;;;;18.83;3.72;;;6.80;99.90;;;;;;5001192;28;20095;-90
2023/03/26 02:40:40;;;;;;;19.52;3.55;;;6.80;99.90;;;;;;5031587;28;20121;-90
2023/03/26 02:43:08;;;;;;;15.82;3.60;;;6.80;99.90;;;;;;5004772;28;20064;-90
2023/03/26 02:45:37;;;;;;;17.50;4.43;;;6.90;99.90;;;;;;5003268;28;20040;-90
2023/03/26 02:48:03;;;;;;;26.08;4.82;;;6.90;99.90;;;;;;5016932;28;20068;-90
2023/03/26 02:50:31;;;;;;;17.33;3.35;;;7.00;99.90;;;;;;5018262;28;20044;-90
2023/03/26 02:53:00;;;;;;;16.92;3.88;;;7.00;99.90;;;;;;5015110;28;20042;-90
2023/03/26 02:55:29;;;;;;;19.33;3.50;;;7.00;99.90;;;;;;5022334;28;20597;-90
2023/03/26 02:57:55;;;;;;;17.50;3.85;;;7.10;99.90;;;;;;5016866;28;20183;-90
2023/03/26 03:00:21;;;;;;;19.33;3.70;;;7.10;99.90;;;;;;5003521;28;20037;-90
2023/03/26 03:02:48;;;;;;;14.43;3.55;;;7.10;99.90;;;;;;5013409;28;20387;-90
2023/03/26 03:05:17;;;;;;;16.58;3.40;;;7.10;99.90;;;;;;5018855;28;20069;-90
2023/03/26 03:07:46;;;;;;;22.77;4.90;;;7.10;99.90;;;;;;5017544;28;20033;-90
2023/03/26 03:10:13;;;;;;;21.55;4.25;;;7.10;99.90;;;;;;5003803;28;20502;-90
2023/03/26 03:12:41;;;;;;;19.20;3.40;;;7.10;99.90;;;;;;5024938;28;20042;-90
2023/03/26 03:15:08;;;;;;;24.55;4.40;;;7.10;99.90;;;;;;5006200;28;20128;-91
2023/03/26 03:17:34;;;;;;;17.90;3.45;;;7.10;99.90;;;;;;5026246;28;20064;-89
2023/03/26 03:19:59;;;;;;;20.42;3.47;;;7.20;99.90;;;;;;5024685;28;20715;-90
2023/03/26 03:22:25;;;;;;;25.58;4.25;;;7.10;99.90;;;;;;5010583;28;20037;-90
2023/03/26 03:24:51;;;;;;;18.27;3.53;;;7.10;99.90;;;;;;5020784;28;20505;-90
2023/03/26 03:27:22;;;;;;;24.23;3.90;;;7.20;99.90;;;;;;5049927;28;20086;-91
2023/03/26 03:29:48;;;;;;;16.92;4.03;;;7.10;99.90;;;;;;5005317;28;20041;-89
2023/03/26 03:32:13;;;;;;;20.35;4.97;;;7.10;99.90;;;;;;5024456;28;20487;-90
2023/03/26 03:34:41;;;;;;;24.77;3.58;;;7.10;99.90;;;;;;5008994;28;20116;-89
2023/03/26 03:37:06;;;;;;;24.85;3.92;;;7.10;99.90;;;;;;5005178;28;20045;-90
2023/03/26 03:39:32;;;;;;;22.33;3.85;;;7.10;99.90;;;;;;5020444;28;20063;-90
2023/03/26 03:41:58;;;;;;;20.27;4.75;;;7.10;99.90;;;;;;5008216;28;20417;-89
2023/03/26 03:44:24;;;;;;;17.83;3.25;;;7.10;99.90;;;;;;5024191;28;20575;-90
2023/03/26 03:46:52;;;;;;;24.60;4.30;;;7.10;99.90;;;;;;5029530;28;20033;-90
2023/03/26 03:49:18;;;;;;;22.13;3.88;;;7.10;99.90;;;;;;5023606;28;20045;-90
2023/03/26 03:51:44;;;;;;;23.67;4.00;;;7.00;99.90;;;;;;5020157;28;20116;-89
2023/03/26 03:54:10;;;;;;;20.52;4.53;;;7.00;99.90;;;;;;5002180;28;20154;-90
2023/03/26 03:56:36;;;;;;;23.05;4.43;;;7.00;99.90;;;;;;5021215;28;20084;-90
2023/03/26 03:59:02;;;;;;;22.55;4.57;;;6.90;99.90;;;;;;5007580;28;20877;-90
2023/03/26 04:01:29;;;;;;;25.70;4.70;;;6.90;99.90;;;;;;5008421;28;20048;-90
2023/03/26 04:03:58;;;;;;;26.65;3.65;;;6.90;99.90;;;;;;5006482;28;20033;-90
2023/03/26 04:06:24;;;;;;;20.65;3.85;;;6.90;99.90;;;;;;5021791;28;20475;-90
2023/03/26 04:08:51;;;;;;;21.08;4.55;;;6.90;99.90;;;;;;5021522;28;20037;-91
2023/03/26 04:11:17;;;;;;;36.47;4.28;;;6.90;99.90;;;;;;5004813;28;20049;-90
2023/03/26 04:13:43;;;;;;;18.00;4.13;;;6.80;99.90;;;;;;5005881;28;20045;-89
2023/03/26 04:16:09;;;;;;;22.63;3.63;;;6.80;99.90;;;;;;5005885;28;20479;-90
2023/03/26 04:18:36;;;;;;;21.30;4.25;;;6.80;99.90;;;;;;5006519;28;20155;-90
2023/03/26 04:21:04;;;;;;;21.73;3.65;;;6.70;99.90;;;;;;5031015;28;20041;-90
2023/03/26 04:23:30;;;;;;;23.92;4.07;;;6.60;99.90;;;;;;5005664;28;20040;-90
2023/03/26 04:26:03;;;;;;;17.40;3.90;;;6.60;99.90;;;;;;5008435;28;20040;-90
2023/03/26 04:28:45;;;;;;;22.48;3.33;;;6.50;99.90;;;;;;5006182;28;20045;-90
2023/03/26 04:31:15;;;;;;;25.00;3.83;;;6.40;99.90;;;;;;5002036;28;20454;-90
2023/03/26 04:33:47;;;;;;;21.42;3.92;;;6.30;99.90;;;;;;5003192;28;20217;-90
2023/03/26 04:36:19;;;;;;;27.63;4.93;;;6.30;99.90;;;;;;5018870;28;20045;-90
2023/03/26 04:38:53;;;;;;;26.00;4.45;;;6.20;99.90;;;;;;5003880;28;20102;-90
2023/03/26 04:41:25;;;;;;;19.05;4.03;;;6.20;99.90;;;;;;5003371;28;20834;-90
2023/03/26 04:43:52;;;;;;;24.65;5.13;;;6.20;99.90;;;;;;5029736;28;20470;-90
2023/03/26 04:46:23;;;;;;;22.92;4.50;;;6.20;99.90;;;;;;5005974;28;20037;-90
2023/03/26 04:48:50;;;;;;;20.30;4.82;;;6.10;99.90;;;;;;5006277;28;20045;-90
2023/03/26 04:51:20;;;;;;;15.77;4.80;;;6.10;99.90;;;;;;5020148;28;20048;-90
2023/03/26 04:54:04;;;;;;;26.30;4.35;;;6.00;99.90;;;;;;5005934;28;20048;-90
2023/03/26 04:56:39;;;;;;;33.05;4.55;;;6.00;99.90;;;;;;5006242;28;20045;-90
2023/03/26 04:59:06;;;;;;;21.48;3.78;;;5.90;99.90;;;;;;5003311;28;20068;-90
2023/03/26 05:01:36;;;;;;;21.45;4.40;;;6.00;99.90;;;;;;5007724;28;20041;-90
2023/03/26 05:04:05;;;;;;;29.60;4.15;;;6.00;99.90;;;;;;5024078;28;20037;-91
2023/03/26 05:06:33;;;;;;;27.60;4.00;;;5.90;99.90;;;;;;5004043;28;20041;-90
2023/03/26 05:09:00;;;;;;;25.30;4.72;;;5.90;99.90;;;;;;5021129;28;20586;-90
2023/03/26 05:11:26;;;;;;;22.27;3.80;;;5.80;99.90;;;;;;5022039;28;20056;-91
2023/03/26 05:13:52;;;;;;;21.13;4.22;;;5.80;99.90;;;;;;5005784;28;20462;-90
2023/03/26 05:16:18;;;;;;;17.08;4.13;;;5.80;99.90;;;;;;5009567;28;20037;-90
2023/03/26 05:18:43;;;;;;;18.15;3.45;;;5.70;99.90;;;;;;5022159;28;20065;-89
2023/03/26 05:21:10;;;;;;;16.80;3.45;;;5.70;99.90;;;;;;5023449;28;20175;-90
2023/03/26 05:23:35;;;;;;;20.25;3.40;;;5.60;99.90;;;;;;5028633;28;20041;-90
2023/03/26 05:26:06;;;;;;;26.63;4.13;;;5.60;99.90;;;;;;5004444;28;20042;-90
2023/03/26 05:28:32;;;;;;;26.80;5.10;;;5.70;99.90;;;;;;5004744;28;20040;-91
2023/03/26 05:30:57;;;;;;;27.48;4.82;;;5.70;99.90;;;;;;5006918;28;20029;-89
2023/03/26 05:33:23;;;;;;;19.20;3.90;;;5.80;99.90;;;;;;5027379;28;20044;-90
2023/03/26 05:36:08;;;;;;;17.55;4.07;;;5.80;99.90;;;;;;5002050;28;20060;-90
2023/03/26 05:38:36;;;;;;;20.95;4.10;;;5.80;99.90;;;;;;5006990;28;20375;-90
2023/03/26 05:41:07;;;;;;;24.45;4.10;;;5.80;99.90;;;;;;5005568;28;20037;-90
2023/03/26 05:43:36;;;;;;;26.10;4.88;;;5.80;99.90;;;;;;5005072;28;20037;-90
2023/03/26 05:46:05;;;;;;;18.65;4.63;;;5.90;99.90;;;;;;5005003;28;20044;-89
2023/03/26 05:48:31;;;;;;;16.17;3.30;;;5.80;99.90;;;;;;5006878;28;20041;-89
2023/03/26 05:50:57;;;;;;;17.60;3.38;;;5.90;99.90;;;;;;5002301;28;20037;-90
2023/03/26 05:53:25;;;;;;;27.08;3.85;;;5.90;99.90;;;;;;5027462;28;20457;-91
2023/03/26 05:55:58;;;;;;;15.52;3.53;;;6.00;99.90;;;;;;5004667;28;20120;-90
2023/03/26 05:58:25;;;;;;;18.92;4.68;;;6.10;99.90;;;;;;5018574;28;20044;-90
2023/03/26 06:01:08;;;;;;;21.45;3.95;;;6.10;99.90;;;;;;5001619;28;20037;-90
2023/03/26 06:03:38;;;;;;;27.25;3.80;;;6.10;99.90;;;;;;5023520;28;20033;-90
2023/03/26 06:06:07;;;;;;;16.88;4.00;;;6.20;99.90;;;;;;5002369;28;20145;-90
2023/03/26 06:08:36;;;;;;;16.38;3.80;;;6.20;99.90;;;;;;5004445;28;20625;-90
2023/03/26 06:11:06;;;;;;;18.05;4.18;;;6.20;99.90;;;;;;5001725;28;20124;-90
2023/03/26 06:13:33;;;;;;;16.17;3.50;;;6.20;99.90;;;;;;5004199;28;20037;-90
2023/03/26 06:15:59;;;;;;;19.70;4.47;;;6.40;99.90;;;;;;5001801;28;20463;-90
2023/03/26 06:18:25;;;;;;;20.33;4.20;;;6.40;99.90;;;;;;5026456;28;20051;-90
2023/03/26 06:20:54;;;;;;;16.35;3.40;;;6.40;99.90;;;;;;5003051;28;20103;-90
2023/03/26 06:23:19;;;;;;;18.70;3.42;;;6.50;99.90;;;;;;5002782;28;20045;-90
2023/03/26 06:25:48;;;;;;;17.13;4.03;;;6.50;99.90;;;;;;5004310;28;20273;-90
2023/03/26 06:28:15;;;;;;;23.33;3.70;;;6.50;99.90;;;;;;5000749;28;20033;-90
2023/03/26 06:30:41;;;;;;;19.48;3.22;;;6.50;99.90;;;;;;5023742;28;20049;-90
2023/03/26 06:33:07;;;;;;;19.45;2.83;;;6.60;99.90;;;;;;5007633;28;20041;-90
2023/03/26 06:35:33;;;;;;;17.00;3.53;;;6.50;99.90;;;;;;5002210;28;20067;-90
2023/03/26 06:38:04;;;;;;;15.40;3.38;;;6.50;99.90;;;;;;5002236;28;20048;-90
2023/03/26 06:40:29;;;;;;;20.15;3.58;;;6.50;99.90;;;;;;5004858;28;20042;-90
2023/03/26 06:42:59;;;;;;;21.33;3.35;;;6.50;99.90;;;;;;5019784;28;20036;-90
2023/03/26 06:45:26;;;;;;;19.63;3.25;;;6.50;99.90;;;;;;5002436;28;20479;-90
2023/03/26 06:47:52;;;;;;;14.10;2.95;;;6.60;99.90;;;;;;5002312;28;20041;-90
2023/03/26 06:50:20;;;;;;;16.88;3.10;;;6.60;99.90;;;;;;5003793;28;20045;-90
2023/03/26 06:52:46;;;;;;;17.83;3.88;;;6.70;99.90;;;;;;5017956;28;20501;-90
2023/03/26 06:55:12;;;;;;;21.95;3.55;;;6.90;99.90;;;;;;5003660;28;20037;-90
2023/03/26 06:57:38;;;;;;;14.02;3.38;;;6.80;99.90;;;;;;5020256;28;20072;-89
2023/03/26 07:00:05;;;;;;;21.95;3.63;;;6.70;99.90;;;;;;5020242;28;20041;-89
2023/03/26 07:02:31;;;;;;;18.08;3.63;;;6.80;99.90;;;;;;5022419;28;20123;-89
2023/03/26 07:04:58;;;;;;;20.63;3.83;;;6.90;99.90;;;;;;5000960;28;20120;-90
2023/03/26 07:07:24;;;;;;;12.38;3.15;;;7.00;99.90;;;;;;5001101;28;20438;-90
2023/03/26 07:09:50;;;;;;;15.27;3.00;;;7.10;99.90;;;;;;5005490;28;20408;-90
2023/03/26 07:12:27;;;;;;;21.60;3.25;;;6.90;99.90;;;;;;5000051;28;20033;-90
2023/03/26 07:14:53;;;;;;;16.73;3.55;;;6.90;99.90;;;;;;5019098;28;20052;-89
2023/03/26 07:17:21;;;;;;;23.80;3.22;;;6.90;99.90;;;;;;5003772;28;20052;-90
2023/03/26 07:19:47;;;;;;;23.10;3.85;;;7.00;99.90;;;;;;5001171;28;20042;-89
2023/03/26 07:22:22;;;;;;;14.90;3.22;;;7.10;99.90;;;;;;5000957;28;20145;-90
2023/03/26 07:24:48;;;;;;;25.33;3.45;;;6.80;99.90;;;;;;5039611;28;20048;-89
2023/03/26 07:27:23;;;;;;;12.38;2.78;;;7.00;99.90;;;;;;5001847;28;20553;-88
2023/03/26 07:30:20;;;;;;;17.23;2.85;;;7.20;99.90;;;;;;5027682;28;20041;-90
2023/03/26 07:32:53;;;;;;;13.65;3.50;;;7.10;99.90;;;;;;5027069;28;20046;-90
2023/03/26 07:35:47;;;;;;;18.38;2.90;;;6.90;99.90;;;;;;5003292;28;20253;-90
2023/03/26 07:38:31;;;;;;;18.58;3.55;;;7.10;99.90;;;;;;4982338;28;20548;-90
2023/03/26 07:41:23;;;;;;;14.10;3.50;;;7.20;99.90;;;;;;5024990;28;20152;-90
2023/03/26 07:44:26;;;;;;;18.98;3.13;;;7.40;99.90;;;;;;5001702;28;20215;-90
2023/03/26 07:46:52;;;;;;;18.92;3.20;;;7.50;99.90;;;;;;5018536;28;20045;-89
2023/03/26 07:49:19;;;;;;;20.13;2.97;;;7.60;99.90;;;;;;5000549;28;20402;-90
2023/03/26 07:51:46;;;;;;;14.55;3.47;;;7.40;99.90;;;;;;5017600;28;20084;-89
2023/03/26 07:54:12;;;;;;;14.85;3.03;;;7.50;99.90;;;;;;5018770;28;20139;-90
2023/03/26 07:57:05;;;;;;;11.75;2.50;;;7.50;99.90;;;;;;5003720;28;20544;-90
2023/03/26 07:59:43;;;;;;;16.98;3.20;;;7.70;99.90;;;;;;5003630;28;20150;-89
2023/03/26 08:02:37;;;;;;;19.35;4.00;;;7.90;99.90;;;;;;5007907;28;20780;-90
2023/03/26 08:05:09;;;;;;;16.40;3.13;;;7.60;99.90;;;;;;5017664;28;20041;-90
2023/03/26 08:07:41;;;;;;;16.77;2.80;;;7.80;99.90;;;;;;5008126;28;20049;-88
2023/03/26 08:10:41;;;;;;;19.88;4.10;;;7.80;99.90;;;;;;5007180;28;20213;-90
2023/03/26 08:13:33;;;;;;;17.02;2.92;;;7.60;99.90;;;;;;5007981;28;20033;-90
2023/03/26 08:16:15;;;;;;;12.48;2.75;;;7.60;99.90;;;;;;5046426;28;20053;-89
2023/03/26 08:19:07;;;;;;;17.00;3.33;;;7.40;99.90;;;;;;5010166;28;20039;-90
2023/03/26 08:21:57;;;;;;;14.75;3.20;;;7.30;99.90;;;;;;5005042;28;20052;-90
2023/03/26 08:24:28;;;;;;;16.13;2.92;;;7.40;99.90;;;;;;5005073;28;20101;-89
2023/03/26 08:27:15;;;;;;;13.30;3.13;;;7.60;99.90;;;;;;5009970;28;20053;-90
2023/03/26 08:29:57;;;;;;;19.55;2.50;;;7.70;99.90;;;;;;5004003;28;20034;-90
2023/03/26 08:32:23;;;;;;;17.55;3.42;;;7.70;99.90;;;;;;5032770;28;20052;-90
2023/03/26 08:34:48;;;;;;;11.57;2.58;;;7.60;99.90;;;;;;5020398;28;20057;-90
2023/03/26 08:37:14;;;;;;;14.90;3.08;;;7.60;99.90;;;;;;5004204;28;20319;-89
2023/03/26 08:39:41;;;;;;;11.30;2.90;;;7.70;99.90;;;;;;5022960;28;20308;-89
2023/03/26 08:42:19;;;;;;;15.40;3.08;;;7.60;99.90;;;;;;5005483;28;20037;-90
2023/03/26 08:44:46;;;;;;;14.32;2.95;;;7.50;99.90;;;;;;5021354;28;20037;-89
2023/03/26 08:47:27;;;;;;;11.23;2.63;;;7.70;99.90;;;;;;5005566;28;20040;-90
2023/03/26 08:50:08;;;;;;;15.32;3.13;;;7.70;10.10;;;;;;5017849;28;20371;-90
2023/03/26 08:52:42;;;;;;;14.75;3.03;;;8.00;99.90;;;;;;5002784;28;20045;-90
2023/03/26 08:55:39;;;;;;;13.20;2.80;;;7.80;92.90;;;;;;5003790;28;20041;-89
2023/03/26 08:58:24;;;;;;;12.90;2.67;;;8.00;99.90;;;;;;5006175;28;20300;-90
2023/03/26 09:01:09;;;;;;;14.70;3.38;;;7.70;99.90;;;;;;5003446;28;20045;-90
2023/03/26 09:03:45;;;;;;;15.45;2.38;;;7.90;99.90;;;;;;5016912;28;20068;-90
2023/03/26 09:06:23;;;;;;;13.50;3.08;;;8.30;99.90;;;;;;5002998;28;20037;-90
2023/03/26 09:09:07;;;;;;;13.60;2.42;;;8.70;61.30;;;;;;5001293;28;20037;-89
2023/03/26 09:12:04;;;;;;;11.85;2.40;;;8.80;99.90;;;;;;5006360;28;20114;-89
2023/03/26 09:14:56;;;;;;;12.27;3.03;;;9.00;99.90;;;;;;5023528;28;20547;-90
2023/03/26 09:17:40;;;;;;;16.38;3.10;;;8.80;99.90;;;;;;5027115;28;20037;-90
2023/03/26 09:20:27;;;;;;;18.08;2.97;;;8.90;56.90;;;;;;5007155;28;20041;-90
2023/03/26 09:23:12;;;;;;;14.18;3.13;;;9.20;99.90;;;;;;5004803;28;20566;-89
2023/03/26 09:25:50;;;;;;;9.90;2.67;;;8.60;99.90;;;;;;5010784;28;20135;-89
2023/03/26 09:28:38;;;;;;;13.38;2.38;;;8.80;1.00;;;;;;5008757;28;20312;-90
2023/03/26 09:31:22;;;;;;;10.35;2.33;;;9.10;99.90;;;;;;5009997;28;20091;-90
2023/03/26 09:34:03;;;;;;;13.85;2.67;;;9.20;99.90;;;;;;5005547;28;20037;-89
2023/03/26 09:37:10;;;;;;;11.77;2.53;;;9.40;96.20;;;;;;5023307;28;20153;-90
2023/03/26 09:39:43;;;;;;;14.00;2.88;;;9.40;99.90;;;;;;4948553;28;20494;-90
2023/03/26 09:42:17;;;;;;;11.77;2.78;;;8.40;99.90;;;;;;4998160;28;20068;-89
2023/03/26 09:45:02;;;;;;;10.15;2.42;;;8.70;99.90;;;;;;5042790;28;20100;-90
2023/03/26 09:47:30;;;;;;;13.20;2.60;;;9.10;99.90;;;;;;5026332;28;20124;-90
2023/03/26 09:50:34;;;;;;;12.68;2.60;;;8.90;99.90;;;;;;5010262;28;20569;-90
2023/03/26 09:53:18;;;;;;;13.27;2.70;;;8.50;99.90;;;;;;5026072;28;20136;-89
2023/03/26 09:56:03;;;;;;;18.15;3.40;;;8.50;99.90;;;;;;5023617;28;20238;-90
2023/03/26 09:59:10;;;;;;;14.57;2.80;;;8.30;99.90;;;;;;5023960;28;20069;-90
2023/03/26 10:02:03;;;;;;;12.95;2.72;;;8.50;97.40;;;;;;4944610;28;20513;-90
2023/03/26 10:04:32;;;;;;;14.93;3.10;;;9.00;99.90;;;;;;5032265;28;20645;-90
2023/03/26 10:07:34;;;;;;;15.43;2.65;;;8.60;99.90;;;;;;5022389;28;20171;-90
2023/03/26 10:10:14;;;;;;;11.07;2.60;;;9.30;1.00;;;;;;5006045;28;20577;-90
2023/03/26 10:13:00;;;;;;;13.07;2.95;;;9.10;1.00;;;;;;5004284;28;20037;-89
2023/03/26 10:15:44;;;;;;;11.38;3.03;;;9.40;1.00;;;;;;5004542;28;20266;-90
2023/03/26 10:18:50;;;;;;;12.68;2.58;;;9.70;99.90;;;;;;5007204;28;20129;-89
2023/03/26 10:21:36;;;;;;;12.23;3.17;;;9.30;1.00;;;;;;5006803;28;20096;-90
2023/03/26 10:24:17;;;;;;;16.15;2.97;;;9.30;1.00;;;;;;5004283;28;20051;-90
2023/03/26 10:26:56;;;;;;;14.13;3.03;;;9.60;99.90;;;;;;5026457;28;20041;-88
2023/03/26 10:29:49;;;;;;;17.23;3.10;;;9.40;99.90;;;;;;5017228;28;20037;-89
2023/03/26 10:32:36;;;;;;;15.77;3.08;;;8.90;1.00;;;;;;5002607;28;20029;-89
2023/03/26 10:35:10;;;;;;;17.02;3.10;;;8.80;99.90;;;;;;5014938;28;20057;-89
2023/03/26 10:38:03;;;;;;;16.48;2.80;;;9.30;1.00;;;;;;5001915;28;20052;-89
2023/03/26 10:40:44;;;;;;;17.45;3.40;;;8.70;99.90;;;;;;5001691;28;20045;-90
2023/03/26 10:43:47;;;;;;;14.18;2.90;;;8.70;99.90;;;;;;5000092;28;20056;-89
2023/03/26 10:46:54;;;;;;;13.07;3.13;;;8.60;99.90;;;;;;5028460;28;20113;-89
2023/03/26 10:49:55;;;;;;;12.07;3.38;;;8.70;99.90;;;;;;5018547;28;20052;-89
2023/03/26 10:52:26;;;;;;;15.18;3.30;;;8.90;99.90;;;;;;5004627;28;20045;-90
2023/03/26 10:54:55;;;;;;;14.82;2.83;;;9.10;99.90;;;;;;5001835;28;20146;-89
2023/03/26 10:57:21;;;;;;;17.42;2.83;;;9.10;99.90;;;;;;5004291;28;20041;-90
2023/03/26 10:59:47;;;;;;;12.35;2.95;;;9.00;1.00;;;;;;5003796;28;20056;-90
2023/03/26 11:02:42;;;;;;;15.15;2.70;;;8.40;99.90;;;;;;5004040;28;20103;-89
2023/03/26 11:05:39;;;;;;;15.27;2.80;;;8.90;99.90;;;;;;4999660;28;20294;-89
2023/03/26 11:08:42;;;;;;;13.55;3.13;;;9.00;1.00;;;;;;5000963;28;20032;-89
2023/03/26 11:11:46;;;;;;;14.70;2.70;;;8.90;99.90;;;;;;5027534;28;20103;-89
2023/03/26 11:14:24;;;;;;;15.00;3.30;;;9.20;99.90;;;;;;4979083;28;20065;-89
2023/03/26 11:17:00;;;;;;;15.07;3.10;;;8.90;99.90;;;;;;4995380;28;20433;-89
2023/03/26 11:19:28;;;;;;;15.32;2.75;;;8.70;99.90;;;;;;5022187;28;20037;-88
2023/03/26 11:22:22;;;;;;;10.45;2.42;;;9.30;99.90;;;;;;5001594;28;20061;-90
2023/03/26 11:25:08;;;;;;;9.13;2.42;;;9.60;99.90;;;;;;5001352;28;20415;-90
2023/03/26 11:27:45;;;;;;;13.27;2.75;;;9.10;1.00;;;;;;5000497;28;20329;-89
2023/03/26 11:30:39;;;;;;;15.57;3.08;;;9.20;1.00;;;;;;5000872;28;20036;-89
2023/03/26 11:33:10;;;;;;;15.73;2.70;;;8.90;1.00;;;;;;5021831;28;20028;-90
2023/03/26 11:36:06;;;;;;;16.63;2.72;;;9.60;99.90;;;;;;5002191;28;20054;-89
2023/03/26 11:38:45;;;;;;;9.48;2.35;;;9.50;1.00;;;;;;5025615;28;20046;-89
2023/03/26 11:41:19;;;;;;;14.15;2.97;;;8.90;99.90;;;;;;5036750;28;20041;-90
2023/03/26 11:43:49;;;;;;;10.43;2.83;;;8.90;99.90;;;;;;5006215;28;20041;-89
2023/03/26 11:46:19;;;;;;;13.90;2.70;;;8.90;99.90;;;;;;5019880;28;20068;-90
2023/03/26 11:48:48;;;;;;;15.70;3.00;;;9.20;1.00;;;;;;5006224;28;20037;-90
2023/03/26 11:51:31;;;;;;;9.63;2.88;;;9.70;1.00;;;;;;5002258;28;20037;-89
2023/03/26 11:53:58;;;;;;;10.68;2.72;;;9.20;99.90;;;;;;5008480;28;20116;-90
2023/03/26 11:56:35;;;;;;;14.32;2.67;;;8.80;99.90;;;;;;5016809;28;20065;-89
2023/03/26 11:59:14;;;;;;;14.75;3.47;;;9.50;99.90;;;;;;5031974;28;20049;-90
2023/03/26 12:01:54;;;;;;;8.20;2.50;;;9.30;99.90;;;;;;5024785;28;20048;-89
2023/03/26 12:04:32;;;;;;;10.50;2.45;;;9.10;80.20;;;;;;5002257;28;20030;-89
2023/03/26 12:07:19;;;;;;;11.52;2.63;;;9.00;79.40;;;;;;4999058;28;20037;-90
2023/03/26 12:09:57;;;;;;;12.82;2.50;;;8.60;99.90;;;;;;5019753;28;20057;-90
2023/03/26 12:12:38;;;;;;;12.68;2.65;;;8.30;99.90;;;;;;5001449;28;20107;-90
2023/03/26 12:15:13;;;;;;;11.70;2.63;;;8.30;99.90;;;;;;5002446;28;20037;-89
2023/03/26 12:17:40;;;;;;;9.02;2.17;;;8.00;99.90;;;;;;5006003;28;20064;-90
2023/03/26 12:20:25;;;;;;;13.00;2.20;;;8.40;99.90;;;;;;5004208;28;20045;-90
2023/03/26 12:23:02;;;;;;;12.35;2.70;;;8.70;1.00;;;;;;5017633;28;20033;-90
2023/03/26 12:25:37;;;;;;;15.75;2.80;;;9.00;99.90;;;;;;5023429;28;20044;-89
2023/03/26 12:28:12;;;;;;;9.90;2.47;;;8.80;99.90;;;;;;5002506;28;20549;-89
2023/03/26 12:30:39;;;;;;;10.73;2.20;;;9.00;1.00;;;;;;5004204;28;20049;-89
2023/03/26 12:33:24;;;;;;;9.93;2.22;;;9.30;1.00;;;;;;5034720;28;20037;-90
2023/03/26 12:35:51;;;;;;;17.13;2.38;;;9.40;1.00;;;;;;5001024;28;20057;-89
2023/03/26 12:38:39;;;;;;;17.48;2.53;;;9.30;99.90;;;;;;5002738;28;20087;-89
2023/03/26 12:41:09;;;;;;;11.90;2.50;;;9.20;1.00;;;;;;5016180;28;20050;-90
2023/03/26 12:43:47;;;;;;;11.48;2.13;;;8.60;99.90;;;;;;5002355;28;20170;-90
2023/03/26 12:46:26;;;;;;;9.38;2.30;;;8.50;99.90;;;;;;5004931;28;20048;-89
2023/03/26 12:48:55;;;;;;;12.20;2.42;;;8.30;1.00;;;;;;5020757;28;20478;-89
2023/03/26 12:52:09;;;;;;;13.15;2.90;;;8.30;99.90;;;;;;5003162;28;20121;-89
2023/03/26 12:54:56;;;;;;;12.32;2.80;;;8.30;28.90;;;;;;5002669;28;20394;-90
2023/03/26 12:57:37;;;;;;;12.57;2.30;;;8.30;76.10;;;;;;5002045;28;20787;-89
2023/03/26 13:00:31;;;;;;;7.95;2.30;;;8.40;1.00;;;;;;5004282;28;20053;-89
2023/03/26 13:03:13;;;;;;;17.63;2.60;;;8.00;99.90;;;;;;5020190;28;20341;-89
2023/03/26 13:06:05;;;;;;;14.30;2.53;;;8.20;1.00;;;;;;5003302;28;20048;-89
2023/03/26 13:08:45;;;;;;;8.75;2.40;;;8.50;1.00;;;;;;5001842;28;20151;-89
2023/03/26 13:11:26;;;;;;;9.75;2.53;;;8.20;99.90;;;;;;5017930;28;20485;-89
2023/03/26 13:14:29;;;;;;;12.82;2.80;;;8.20;99.90;;;;;;5003429;28;20100;-90
2023/03/26 13:17:11;;;;;;;9.55;2.38;;;8.20;99.90;;;;;;5020084;28;20044;-89
2023/03/26 13:19:52;;;;;;;13.63;2.70;;;7.70;99.90;;;;;;5003891;28;20040;-89
2023/03/26 13:22:47;;;;;;;12.80;2.63;;;8.30;99.90;;;;;;5019976;28;20037;-89
2023/03/26 13:25:46;;;;;;;15.13;2.00;;;8.90;99.90;;;;;;5041677;28;20033;-90
2023/03/26 13:28:24;;;;;;;10.88;2.20;;;8.90;99.90;;;;;;5002174;28;20080;-89